createdAt,value
2022-08-30T00:01:05.885Z,12.85
2022-08-30T00:03:45.897Z,12.80
2022-08-30T00:06:15.045Z,12.72
2022-08-30T00:08:43.141Z,12.61
2022-08-30T00:11:12.915Z,12.72
2022-08-30T00:13:41.867Z,13.10
2022-08-30T00:16:09.315Z,13.15
2022-08-30T00:18:36.669Z,13.06
2022-08-30T00:21:03.969Z,12.97
2022-08-30T00:23:31.048Z,12.98
2022-08-30T00:25:58.273Z,12.86
2022-08-30T00:28:25.177Z,12.84
2022-08-30T00:30:52.108Z,12.53
2022-08-30T00:33:19.771Z,12.49
2022-08-30T00:35:46.607Z,12.64
2022-08-30T00:38:14.263Z,12.90
2022-08-30T00:40:44.406Z,12.71
2022-08-30T00:43:19.497Z,12.56
2022-08-30T00:45:47.167Z,12.60
2022-08-30T00:48:14.103Z,12.44
2022-08-30T00:53:26.659Z,12.40
2022-08-30T00:55:54.436Z,12.42
2022-08-30T00:58:28.448Z,12.45
2022-08-30T01:00:57.688Z,12.36
2022-08-30T01:03:25.032Z,12.56
2022-08-30T01:05:52.555Z,12.67
2022-08-30T01:08:22.358Z,12.62
2022-08-30T01:10:52.032Z,12.53
2022-08-30T01:13:20.197Z,12.65
2022-08-30T01:15:51.511Z,12.81
2022-08-30T01:18:22.192Z,12.45
2022-08-30T01:20:58.351Z,12.40
2022-08-30T01:23:26.065Z,12.25
2022-08-30T01:25:55.136Z,12.32
2022-08-30T01:28:25.947Z,12.72
2022-08-30T01:30:54.188Z,12.64
2022-08-30T01:33:21.468Z,12.93
2022-08-30T01:36:04.493Z,12.71
2022-08-30T01:38:35.591Z,12.67
2022-08-30T01:41:12.730Z,12.87
2022-08-30T01:43:39.932Z,12.72
2022-08-30T01:46:07.204Z,12.86
2022-08-30T01:48:34.448Z,12.71
2022-08-30T01:51:02.416Z,13.00
2022-08-30T01:53:29.349Z,12.91
2022-08-30T01:55:56.262Z,12.62
2022-08-30T01:58:23.393Z,12.36
2022-08-30T02:00:50.877Z,12.31
2022-08-30T02:03:18.046Z,12.68
2022-08-30T02:05:45.325Z,12.39
2022-08-30T02:08:12.149Z,12.42
2022-08-30T02:10:38.995Z,12.19
2022-08-30T02:13:05.824Z,12.15
2022-08-30T02:15:34.134Z,12.15
2022-08-30T02:18:10.800Z,12.04
2022-08-30T02:20:39.765Z,12.20
2022-08-30T02:23:06.577Z,12.23
2022-08-30T02:25:33.431Z,12.63
2022-08-30T02:28:00.313Z,12.61
2022-08-30T02:30:27.481Z,12.88
2022-08-30T02:32:54.408Z,12.75
2022-08-30T02:35:21.366Z,12.51
2022-08-30T02:37:48.189Z,12.60
2022-08-30T02:40:15.216Z,12.53
2022-08-30T02:42:42.203Z,12.42
2022-08-30T02:45:09.300Z,12.53
2022-08-30T02:47:36.717Z,12.56
2022-08-30T02:50:07.893Z,12.53
2022-08-30T02:52:34.887Z,12.83
2022-08-30T02:55:01.917Z,12.81
2022-08-30T02:57:28.783Z,12.32
2022-08-30T02:59:55.530Z,12.46
2022-08-30T03:02:22.502Z,12.28
2022-08-30T03:04:50.205Z,12.60
2022-08-30T03:07:17.317Z,12.38
2022-08-30T03:09:44.364Z,12.50
2022-08-30T03:12:12.298Z,12.27
2022-08-30T03:14:39.620Z,12.28
2022-08-30T03:17:12.751Z,12.40
2022-08-30T03:19:43.587Z,12.42
2022-08-30T03:22:11.045Z,12.41
2022-08-30T03:24:38.195Z,12.62
2022-08-30T03:27:05.166Z,12.32
2022-08-30T03:29:32.033Z,12.02
2022-08-30T03:31:58.941Z,12.02
2022-08-30T03:34:26.503Z,12.25
2022-08-30T03:36:54.604Z,11.96
2022-08-30T03:39:22.828Z,11.98
2022-08-30T03:41:49.915Z,12.28
2022-08-30T03:44:16.764Z,11.99
2022-08-30T03:46:43.732Z,11.98
2022-08-30T03:49:10.527Z,11.94
2022-08-30T03:51:37.525Z,11.99
2022-08-30T03:54:04.473Z,11.91
2022-08-30T03:56:31.262Z,11.96
2022-08-30T03:58:58.119Z,11.93
2022-08-30T04:01:24.990Z,11.83
2022-08-30T04:03:51.803Z,11.92
2022-08-30T04:06:18.631Z,11.75
2022-08-30T04:08:46.141Z,11.73
2022-08-30T04:11:14.995Z,11.75
2022-08-30T04:13:42.529Z,11.82
2022-08-30T04:16:09.731Z,11.78
2022-08-30T04:18:36.797Z,11.70
2022-08-30T04:21:04.406Z,11.82
2022-08-30T04:23:31.320Z,12.16
2022-08-30T04:25:58.122Z,12.27
2022-08-30T04:28:24.995Z,12.37
2022-08-30T04:30:51.767Z,12.37
2022-08-30T04:33:19.375Z,12.00
2022-08-30T04:35:48.694Z,12.12
2022-08-30T04:38:17.350Z,12.53
2022-08-30T04:40:47.359Z,12.00
2022-08-30T04:43:15.205Z,12.08
2022-08-30T04:45:42.716Z,11.93
2022-08-30T04:48:10.429Z,12.37
2022-08-30T04:50:37.425Z,12.30
2022-08-30T04:53:12.713Z,12.20
2022-08-30T04:55:40.820Z,12.20
2022-08-30T04:58:07.872Z,12.33
2022-08-30T05:00:34.858Z,12.15
2022-08-30T05:03:01.672Z,11.83
2022-08-30T05:05:40.917Z,11.88
2022-08-30T05:08:09.392Z,12.08
2022-08-30T05:10:41.832Z,12.12
2022-08-30T05:13:08.776Z,12.25
2022-08-30T05:15:36.115Z,12.10
2022-08-30T05:18:04.520Z,11.99
2022-08-30T05:20:31.424Z,11.80
2022-08-30T05:22:58.769Z,11.96
2022-08-30T05:25:28.683Z,11.73
2022-08-30T05:28:12.496Z,11.70
2022-08-30T05:30:39.338Z,11.64
2022-08-30T05:33:06.164Z,11.58
2022-08-30T05:35:33.083Z,11.58
2022-08-30T05:37:59.950Z,11.52
2022-08-30T05:40:26.860Z,11.64
2022-08-30T05:42:56.102Z,11.72
2022-08-30T05:45:22.918Z,11.81
2022-08-30T05:47:49.738Z,12.14
2022-08-30T05:50:16.749Z,11.90
2022-08-30T05:52:45.068Z,11.85
2022-08-30T05:55:12.478Z,11.96
2022-08-30T05:57:40.327Z,11.80
2022-08-30T06:00:10.363Z,11.80
2022-08-30T06:02:41.736Z,12.04
2022-08-30T06:05:09.383Z,11.82
2022-08-30T06:07:36.134Z,11.81
2022-08-30T06:10:03.470Z,11.80
2022-08-30T06:12:30.352Z,11.98
2022-08-30T06:14:57.202Z,11.93
2022-08-30T06:17:23.987Z,11.93
2022-08-30T06:19:50.876Z,11.96
2022-08-30T06:22:17.920Z,11.95
2022-08-30T06:24:59.869Z,11.91
2022-08-30T06:27:26.886Z,12.06
2022-08-30T06:29:53.720Z,12.12
2022-08-30T06:32:20.699Z,12.04
2022-08-30T06:34:48.420Z,12.01
2022-08-30T06:37:24.588Z,12.37
2022-08-30T06:39:58.207Z,12.68
2022-08-30T06:42:30.695Z,12.74
2022-08-30T06:45:01.766Z,13.00
2022-08-30T06:47:29.156Z,12.67
2022-08-30T06:49:56.325Z,12.62
2022-08-30T06:52:23.420Z,12.77
2022-08-30T06:54:50.458Z,12.54
2022-08-30T06:57:18.129Z,12.80
2022-08-30T06:59:44.895Z,12.78
2022-08-30T07:02:11.947Z,12.82
2022-08-30T07:04:38.844Z,13.03
2022-08-30T07:07:05.728Z,13.13
2022-08-30T07:12:06.709Z,13.07
2022-08-30T07:14:33.555Z,12.80
2022-08-30T07:17:00.372Z,13.23
2022-08-30T07:19:27.234Z,12.89
2022-08-30T07:21:54.127Z,13.12
2022-08-30T07:24:21.145Z,13.23
2022-08-30T07:26:51.874Z,13.18
2022-08-30T07:29:19.122Z,13.45
2022-08-30T07:31:46.224Z,13.12
2022-08-30T07:34:13.175Z,13.29
2022-08-30T07:36:40.233Z,13.23
2022-08-30T07:39:07.742Z,13.48
2022-08-30T07:41:38.678Z,13.65
2022-08-30T07:44:07.452Z,13.62
2022-08-30T07:46:35.093Z,13.22
2022-08-30T07:49:04.068Z,13.54
2022-08-30T07:51:32.157Z,13.45
2022-08-30T07:53:59.340Z,13.63
2022-08-30T07:56:26.755Z,13.18
2022-08-30T07:58:53.818Z,13.56
2022-08-30T08:01:22.510Z,13.70
2022-08-30T08:03:50.495Z,13.73
2022-08-30T08:06:19.679Z,13.60
2022-08-30T08:08:46.518Z,13.77
2022-08-30T08:11:19.614Z,13.37
2022-08-30T08:13:53.495Z,13.45
2022-08-30T08:16:26.717Z,13.64
2022-08-30T08:18:54.521Z,13.96
2022-08-30T08:21:22.456Z,13.90
2022-08-30T08:23:49.877Z,13.93
2022-08-30T08:26:16.833Z,14.21
2022-08-30T08:28:45.061Z,13.76
2022-08-30T08:31:27.346Z,14.14
2022-08-30T08:34:03.016Z,13.76
2022-08-30T08:36:31.463Z,14.32
2022-08-30T08:38:58.632Z,14.31
2022-08-30T08:41:44.189Z,14.26
2022-08-30T08:44:18.913Z,14.41
2022-08-30T08:47:05.256Z,14.34
2022-08-30T08:49:35.924Z,14.38
2022-08-30T08:52:23.128Z,14.44
2022-08-30T08:54:56.335Z,14.47
2022-08-30T08:57:27.164Z,14.29
2022-08-30T08:59:55.130Z,14.57
2022-08-30T09:02:25.702Z,14.17
2022-08-30T09:04:57.998Z,14.41
2022-08-30T09:07:27.937Z,14.44
2022-08-30T09:09:54.823Z,14.69
2022-08-30T09:12:22.080Z,14.68
2022-08-30T09:14:55.591Z,14.69
2022-08-30T09:17:23.608Z,14.82
2022-08-30T09:19:53.655Z,14.92
2022-08-30T09:22:29.199Z,14.46
2022-08-30T09:25:00.830Z,14.56
2022-08-30T09:27:35.446Z,14.88
2022-08-30T09:30:14.321Z,15.00
2022-08-30T09:33:03.091Z,14.89
2022-08-30T09:35:43.179Z,15.11
2022-08-30T09:38:13.017Z,14.88
2022-08-30T09:40:47.059Z,14.90
2022-08-30T09:43:27.880Z,14.93
2022-08-30T09:46:01.515Z,15.36
2022-08-30T09:48:44.116Z,15.10
2022-08-30T09:51:11.642Z,15.09
2022-08-30T09:54:17.019Z,14.69
2022-08-30T09:56:52.484Z,14.49
2022-08-30T09:59:31.732Z,14.65
2022-08-30T10:02:20.991Z,15.04
2022-08-30T10:05:03.679Z,15.55
2022-08-30T10:07:46.585Z,15.35
2022-08-30T10:10:53.150Z,15.66
2022-08-30T10:13:37.669Z,15.03
2022-08-30T10:16:39.908Z,15.50
2022-08-30T10:19:09.913Z,15.47
2022-08-30T10:21:45.829Z,15.48
2022-08-30T10:24:21.249Z,15.39
2022-08-30T10:27:03.258Z,15.20
2022-08-30T10:29:34.367Z,15.34
2022-08-30T10:32:12.800Z,15.22
2022-08-30T10:34:44.186Z,15.27
2022-08-30T10:37:18.518Z,15.49
2022-08-30T10:39:56.219Z,15.45
2022-08-30T10:42:39.841Z,15.36
2022-08-30T10:45:14.198Z,15.51
2022-08-30T10:47:55.300Z,15.43
2022-08-30T10:50:24.649Z,15.79
2022-08-30T10:53:27.087Z,15.82
2022-08-30T10:56:07.585Z,15.83
2022-08-30T10:58:38.315Z,15.33
2022-08-30T11:01:20.559Z,15.28
2022-08-30T11:04:22.517Z,15.92
2022-08-30T11:06:57.961Z,16.19
2022-08-30T11:10:00.880Z,16.07
2022-08-30T11:12:35.563Z,16.29
2022-08-30T11:15:23.695Z,16.04
2022-08-30T11:17:59.304Z,15.93
2022-08-30T11:20:34.567Z,16.04
2022-08-30T11:23:16.602Z,16.09
2022-08-30T11:25:48.309Z,15.73
2022-08-30T11:28:35.820Z,16.34
2022-08-30T11:31:13.102Z,16.37
2022-08-30T11:33:51.420Z,16.56
2022-08-30T11:36:46.253Z,16.60
2022-08-30T11:39:13.733Z,16.53
2022-08-30T11:41:48.270Z,16.28
2022-08-30T11:44:15.112Z,16.50
2022-08-30T11:46:43.248Z,16.05
2022-08-30T11:49:15.516Z,16.47
2022-08-30T11:52:28.871Z,16.37
2022-08-30T11:55:25.973Z,16.55
2022-08-30T11:58:05.085Z,16.34
2022-08-30T12:00:39.734Z,16.40
2022-08-30T12:03:20.743Z,16.44
2022-08-30T12:05:59.664Z,15.89
2022-08-30T12:08:36.103Z,15.30
2022-08-30T12:11:11.077Z,15.64
2022-08-30T12:13:37.992Z,16.17
2022-08-30T12:16:09.414Z,16.19
2022-08-30T12:18:51.907Z,16.33
2022-08-30T12:21:22.037Z,16.14
2022-08-30T12:24:24.003Z,16.41
2022-08-30T12:26:52.135Z,16.42
2022-08-30T12:29:25.937Z,16.44
2022-08-30T12:31:58.180Z,16.34
2022-08-30T12:34:33.330Z,16.27
2022-08-30T12:37:00.293Z,15.77
2022-08-30T12:40:00.655Z,15.62
2022-08-30T12:42:30.408Z,16.18
2022-08-30T12:45:00.673Z,16.10
2022-08-30T12:47:52.453Z,16.64
2022-08-30T12:50:26.264Z,16.13
2022-08-30T12:53:13.591Z,15.99
2022-08-30T12:55:55.457Z,16.64
2022-08-30T12:58:47.321Z,16.88
2022-08-30T13:01:19.031Z,16.93
2022-08-30T13:03:57.560Z,17.00
2022-08-30T13:06:58.504Z,16.76
2022-08-30T13:09:35.412Z,16.74
2022-08-30T13:12:08.027Z,16.51
2022-08-30T13:14:37.873Z,16.26
2022-08-30T13:17:20.412Z,16.32
2022-08-30T13:20:20.959Z,16.32
2022-08-30T13:23:04.497Z,16.20
2022-08-30T13:25:32.958Z,16.32
2022-08-30T13:28:01.106Z,16.12
2022-08-30T13:30:28.604Z,15.98
2022-08-30T13:32:55.944Z,16.07
2022-08-30T13:35:22.971Z,16.03
2022-08-30T13:37:51.503Z,16.26
2022-08-30T13:40:20.160Z,16.19
2022-08-30T13:42:47.317Z,16.27
2022-08-30T13:48:02.739Z,16.46
2022-08-30T13:50:30.387Z,16.24
2022-08-30T13:52:57.886Z,16.31
2022-08-30T13:55:24.884Z,16.54
2022-08-30T13:57:55.785Z,16.71
2022-08-30T14:00:24.750Z,16.86
2022-08-30T14:02:58.203Z,16.47
2022-08-30T14:06:05.147Z,16.73
2022-08-30T14:11:18.676Z,16.39
2022-08-30T14:16:35.201Z,16.32
2022-08-30T14:19:02.633Z,16.10
2022-08-30T14:21:30.179Z,16.36
2022-08-30T14:23:58.750Z,16.26
2022-08-30T14:26:33.274Z,16.06
2022-08-30T14:29:05.420Z,16.04
2022-08-30T14:31:37.362Z,15.94
2022-08-30T14:34:05.213Z,16.17
2022-08-30T14:36:35.021Z,16.17
2022-08-30T14:39:02.997Z,16.32
2022-08-30T14:41:38.905Z,16.64
2022-08-30T14:44:08.442Z,16.84
2022-08-30T14:46:37.676Z,16.79
2022-08-30T14:49:04.582Z,16.65
2022-08-30T14:51:32.756Z,16.79
2022-08-30T14:54:00.896Z,16.81
2022-08-30T14:56:27.749Z,16.70
2022-08-30T14:59:00.518Z,16.60
2022-08-30T15:01:28.339Z,16.69
2022-08-30T15:03:55.601Z,16.69
2022-08-30T15:06:22.936Z,16.65
2022-08-30T15:08:54.242Z,16.46
2022-08-30T15:11:22.110Z,16.09
2022-08-30T15:13:49.385Z,16.20
2022-08-30T15:16:28.994Z,16.27
2022-08-30T15:18:57.369Z,16.05
2022-08-30T15:21:24.628Z,15.92
2022-08-30T15:23:53.025Z,16.03
2022-08-30T15:26:20.412Z,15.68
2022-08-30T15:28:47.525Z,16.04
2022-08-30T15:31:14.580Z,16.01
2022-08-30T15:33:41.569Z,16.21
2022-08-30T15:36:12.343Z,16.04
2022-08-30T15:38:39.740Z,16.01
2022-08-30T15:41:08.965Z,16.37
2022-08-30T15:43:35.891Z,16.34
2022-08-30T15:46:15.496Z,16.27
2022-08-30T15:48:45.493Z,16.21
2022-08-30T15:51:13.672Z,16.00
2022-08-30T15:53:40.995Z,15.84
2022-08-30T15:56:08.018Z,16.10
2022-08-30T15:58:35.278Z,16.33
2022-08-30T16:01:02.448Z,16.39
2022-08-30T16:03:29.718Z,16.18
2022-08-30T16:05:57.122Z,16.50
2022-08-30T16:08:25.209Z,16.60
2022-08-30T16:10:52.781Z,16.82
2022-08-30T16:13:19.570Z,16.79
2022-08-30T16:15:46.685Z,16.64
2022-08-30T16:18:14.709Z,16.59
2022-08-30T16:20:42.658Z,16.51
2022-08-30T16:23:10.919Z,16.63
2022-08-30T16:25:40.728Z,16.48
2022-08-30T16:28:09.550Z,16.60
2022-08-30T16:30:36.806Z,16.40
2022-08-30T16:33:03.860Z,16.44
2022-08-30T16:35:32.832Z,16.81
2022-08-30T16:37:59.842Z,16.47
2022-08-30T16:40:26.622Z,16.69
2022-08-30T16:42:53.513Z,16.37
2022-08-30T16:45:20.334Z,16.11
2022-08-30T16:47:47.218Z,16.18
2022-08-30T16:50:16.792Z,15.94
2022-08-30T16:52:44.786Z,15.75
2022-08-30T16:55:11.882Z,16.01
2022-08-30T16:57:39.856Z,15.84
2022-08-30T17:00:13.189Z,15.90
2022-08-30T17:02:46.639Z,15.75
2022-08-30T17:05:21.933Z,15.88
2022-08-30T17:07:50.301Z,15.89
2022-08-30T17:10:23.427Z,15.76
2022-08-30T17:12:58.391Z,15.77
2022-08-30T17:15:27.084Z,15.65
2022-08-30T17:17:59.017Z,15.53
2022-08-30T17:20:26.956Z,15.38
2022-08-30T17:22:53.735Z,15.32
2022-08-30T17:25:21.141Z,15.13
2022-08-30T17:27:48.178Z,15.23
2022-08-30T17:30:15.074Z,15.11
2022-08-30T17:32:42.566Z,15.23
2022-08-30T17:35:09.579Z,15.21
2022-08-30T17:37:36.729Z,15.07
2022-08-30T17:40:04.612Z,14.87
2022-08-30T17:42:31.495Z,14.98
2022-08-30T17:45:02.364Z,15.01
2022-08-30T17:47:36.472Z,14.72
2022-08-30T17:50:05.230Z,14.69
2022-08-30T17:52:33.147Z,14.57
2022-08-30T17:55:00.297Z,14.56
2022-08-30T17:57:27.242Z,14.55
2022-08-30T17:59:57.420Z,14.56
2022-08-30T18:02:30.044Z,14.60
2022-08-30T18:04:59.093Z,14.62
2022-08-30T18:07:26.946Z,14.57
2022-08-30T18:09:53.956Z,14.45
2022-08-30T18:12:21.540Z,14.33
2022-08-30T18:14:52.930Z,14.21
2022-08-30T18:17:21.104Z,13.97
2022-08-30T18:22:24.684Z,14.20
2022-08-30T18:24:51.554Z,14.21
2022-08-30T18:27:18.474Z,14.20
2022-08-30T18:29:45.334Z,14.05
2022-08-30T18:32:12.254Z,14.05
2022-08-30T18:34:40.456Z,14.11
2022-08-30T18:37:11.299Z,13.89
2022-08-30T18:39:38.870Z,13.94
2022-08-30T18:42:08.499Z,14.06
2022-08-30T18:44:36.984Z,14.10
2022-08-30T18:47:05.503Z,14.14
2022-08-30T18:49:33.939Z,13.93
2022-08-30T18:52:03.212Z,14.13
2022-08-30T18:54:31.017Z,14.04
2022-08-30T18:56:57.909Z,13.93
2022-08-30T18:59:35.294Z,13.75
2022-08-30T19:02:06.240Z,13.71
2022-08-30T19:04:35.056Z,13.67
2022-08-30T19:07:03.893Z,13.69
2022-08-30T19:09:30.737Z,13.58
2022-08-30T19:11:57.610Z,13.81
2022-08-30T19:14:24.388Z,13.94
2022-08-30T19:16:56.308Z,13.81
2022-08-30T19:19:23.613Z,13.83
2022-08-30T19:24:33.731Z,13.67
2022-08-30T19:27:01.376Z,13.77
2022-08-30T19:29:28.406Z,13.63
2022-08-30T19:31:55.257Z,13.48
2022-08-30T19:34:22.249Z,13.57
2022-08-30T19:36:49.202Z,13.33
2022-08-30T19:39:16.308Z,13.57
2022-08-30T19:41:44.291Z,13.66
2022-08-30T19:44:11.209Z,13.35
2022-08-30T19:46:38.093Z,13.27
2022-08-30T19:49:07.157Z,13.35
2022-08-30T19:51:34.123Z,13.33
2022-08-30T19:54:02.920Z,13.37
2022-08-30T19:56:30.062Z,13.37
2022-08-30T19:58:57.015Z,13.35
2022-08-30T20:01:32.239Z,13.21
2022-08-30T20:04:01.985Z,13.24
2022-08-30T20:06:29.961Z,13.13
2022-08-30T20:08:58.181Z,13.06
2022-08-30T20:11:27.688Z,13.32
2022-08-30T20:13:54.662Z,13.25
2022-08-30T20:16:21.554Z,13.10
2022-08-30T20:19:00.439Z,13.14
2022-08-30T20:21:27.227Z,13.20
2022-08-30T20:24:13.197Z,13.01
2022-08-30T20:26:40.410Z,12.84
2022-08-30T20:29:07.793Z,12.94
2022-08-30T20:31:35.584Z,12.76
2022-08-30T20:34:02.697Z,12.85
2022-08-30T20:36:29.485Z,12.89
2022-08-30T20:38:56.765Z,12.65
2022-08-30T20:41:24.699Z,12.61
2022-08-30T20:43:52.650Z,12.93
2022-08-30T20:46:20.485Z,12.92
2022-08-30T20:48:47.887Z,12.92
2022-08-30T20:51:17.657Z,13.20
2022-08-30T20:53:44.995Z,12.87
2022-08-30T20:56:17.879Z,12.56
2022-08-30T20:58:45.033Z,12.79
2022-08-30T21:01:12.899Z,12.83
2022-08-30T21:03:40.967Z,12.81
2022-08-30T21:06:08.327Z,12.74
2022-08-30T21:08:35.199Z,12.69
2022-08-30T21:11:02.001Z,12.69
2022-08-30T21:13:28.971Z,12.68
2022-08-30T21:16:00.352Z,12.53
2022-08-30T21:18:32.868Z,12.64
2022-08-30T21:21:07.754Z,12.78
2022-08-30T21:23:35.857Z,12.89
2022-08-30T21:26:10.173Z,13.09
2022-08-30T21:28:37.461Z,12.85
2022-08-30T21:31:06.649Z,12.91
2022-08-30T21:33:33.558Z,12.66
2022-08-30T21:36:29.457Z,12.47
2022-08-30T21:39:00.923Z,12.42
2022-08-30T21:41:29.255Z,12.26
2022-08-30T21:43:58.106Z,12.28
2022-08-30T21:46:26.368Z,12.30
2022-08-30T21:48:54.137Z,12.08
2022-08-30T21:51:21.477Z,12.00
2022-08-30T21:53:48.303Z,12.40
2022-08-30T21:56:22.171Z,12.36
2022-08-30T21:58:49.864Z,12.31
2022-08-30T22:01:21.229Z,12.19
2022-08-30T22:03:48.364Z,12.29
2022-08-30T22:06:15.712Z,12.45
2022-08-30T22:08:45.315Z,12.45
2022-08-30T22:11:15.530Z,12.23
2022-08-30T22:13:44.526Z,12.54
2022-08-30T22:16:12.187Z,12.49
2022-08-30T22:18:39.779Z,12.65
2022-08-30T22:21:07.885Z,12.76
2022-08-30T22:23:35.386Z,12.72
2022-08-30T22:26:02.646Z,12.43
2022-08-30T22:28:29.440Z,12.64
2022-08-30T22:31:00.950Z,12.55
2022-08-30T22:33:28.291Z,12.70
2022-08-30T22:35:55.111Z,12.27
2022-08-30T22:38:22.668Z,12.16
2022-08-30T22:40:53.027Z,12.00
2022-08-30T22:43:20.159Z,12.20
2022-08-30T22:45:47.077Z,12.07
2022-08-30T22:48:14.215Z,12.21
2022-08-30T22:50:41.253Z,11.98
2022-08-30T22:53:08.146Z,11.96
2022-08-30T22:55:35.129Z,11.84
2022-08-30T22:58:02.034Z,11.94
2022-08-30T23:00:28.814Z,12.27
2022-08-30T23:02:55.754Z,12.06
2022-08-30T23:05:23.470Z,12.03
2022-08-30T23:07:51.114Z,11.95
2022-08-30T23:10:18.361Z,12.22
2022-08-30T23:12:45.412Z,11.96
2022-08-30T23:15:14.911Z,11.92
2022-08-30T23:17:41.762Z,11.95
2022-08-30T23:20:09.134Z,12.03
2022-08-30T23:22:36.016Z,12.16
2022-08-30T23:25:21.371Z,12.05
2022-08-30T23:31:05.845Z,11.91
2022-08-30T23:33:51.545Z,11.87
2022-08-30T23:36:37.046Z,11.94
2022-08-30T23:39:22.593Z,12.38
2022-08-30T23:42:08.054Z,12.44
2022-08-30T23:44:53.438Z,12.09
2022-08-30T23:47:38.893Z,11.82
2022-08-30T23:50:24.659Z,11.78
2022-08-30T23:53:10.413Z,11.81
2022-08-30T23:55:59.052Z,11.81
2022-08-30T23:58:44.224Z,11.65
